Bryce Canyon Airport Bryce Canyon US
ICAO: KBCE
IATA: BCE
Category: Medium
Scheduled Services: No

Elevation: 7590 ft
TransAlt. 18000 ft.

Airport Communications:
ASOS:135.475
CEDAR CITY RDO:122.2
CTAF/UNICOM:122.8

KBCE Zoom In..

If you have problems with the map follow the link
https://www.worldairports.se/pages/airport.php?
ICAO=KBCE

Runways:

(A) RW 03 length 7395 ft width 75 ft
---- / hdg 33

(B) RW 21 length 7395 ft width 75 ft
---- / hdg 213

Location; KBCE
Day. 18 / Time. 01.53 Zulu
* Altimeter: 29.74
* Temperature: -12° c. -10.4°f.
* Wind from: 280° Speed 05 kn.
Dewpoint: -13° c.
Visibility: 10 Statute Miles.
Clouds: Broken 4000 ft.

KBCE 180153Z AUTO 28005KT 10SM BKN040 M12/M13 A2974 RMK AO2 SNB14E47 SLP118 P0000 T11171128 $


Wind From 280°
Speed 05 kn.

 
 
jpsmedia.com for Web Design worldairports.se 2019   terms of use